createdAt,value
2023-03-11T00:00:47.454Z,7.63
2023-03-11T00:03:26.059Z,7.64
2023-03-11T00:05:54.387Z,7.64
2023-03-11T00:08:24.244Z,7.65
2023-03-11T00:10:54.775Z,7.68
2023-03-11T00:13:22.898Z,7.70
2023-03-11T00:15:52.539Z,7.73
2023-03-11T00:18:20.153Z,7.74
2023-03-11T00:20:47.777Z,7.75
2023-03-11T00:23:15.963Z,7.75
2023-03-11T00:25:45.624Z,7.76
2023-03-11T00:28:14.900Z,7.77
2023-03-11T00:30:44.866Z,7.79
2023-03-11T00:33:15.095Z,7.80
2023-03-11T00:35:43.907Z,7.76
2023-03-11T00:38:18.551Z,7.73
2023-03-11T00:40:48.016Z,7.68
2023-03-11T00:43:17.061Z,7.63
2023-03-11T00:45:45.203Z,7.57
2023-03-11T00:48:13.936Z,7.50
2023-03-11T00:50:42.632Z,7.47
2023-03-11T00:53:10.853Z,7.44
2023-03-11T00:55:38.462Z,7.42
2023-03-11T00:58:07.053Z,7.39
2023-03-11T01:00:35.491Z,7.42
2023-03-11T01:03:03.642Z,7.42
2023-03-11T01:05:34.003Z,7.43
2023-03-11T01:08:02.546Z,7.46
2023-03-11T01:10:35.429Z,7.48
2023-03-11T01:13:04.055Z,7.47
2023-03-11T01:15:35.331Z,7.49
2023-03-11T01:18:03.251Z,7.50
2023-03-11T01:20:31.658Z,7.52
2023-03-11T01:22:59.245Z,7.54
2023-03-11T01:25:26.975Z,7.53
2023-03-11T01:27:54.567Z,7.53
2023-03-11T01:30:24.377Z,7.56
2023-03-11T01:32:53.513Z,7.60
2023-03-11T01:35:23.875Z,7.64
2023-03-11T01:37:51.795Z,7.66
2023-03-11T01:40:25.998Z,7.70
2023-03-11T01:42:53.592Z,7.74
2023-03-11T01:45:40.959Z,7.72
2023-03-11T01:48:10.108Z,7.70
2023-03-11T01:50:44.955Z,7.68
2023-03-11T01:53:14.719Z,7.64
2023-03-11T01:55:43.769Z,7.64
2023-03-11T01:58:16.941Z,7.64
2023-03-11T02:00:44.832Z,7.60
2023-03-11T02:03:30.259Z,7.55
2023-03-11T02:06:01.217Z,7.49
2023-03-11T02:08:28.927Z,7.44
2023-03-11T02:10:57.367Z,7.44
2023-03-11T02:13:25.060Z,7.41
2023-03-11T02:15:52.765Z,7.37
2023-03-11T02:18:20.966Z,7.32
2023-03-11T02:21:17.269Z,7.24
2023-03-11T02:23:56.195Z,7.15
2023-03-11T02:26:29.461Z,7.10
2023-03-11T02:28:58.284Z,7.04
2023-03-11T02:31:26.298Z,7.02
2023-03-11T02:33:54.909Z,7.01
2023-03-11T02:36:39.329Z,7.00
2023-03-11T02:39:08.696Z,6.98
2023-03-11T02:41:44.719Z,6.97
2023-03-11T02:44:15.956Z,6.96
2023-03-11T02:46:44.253Z,6.96
2023-03-11T02:49:13.017Z,6.98
2023-03-11T02:51:40.597Z,6.98
2023-03-11T02:54:08.300Z,6.98
2023-03-11T02:56:35.874Z,6.96
2023-03-11T02:59:03.566Z,6.91
2023-03-11T03:01:31.186Z,6.89
2023-03-11T03:03:58.943Z,6.86
2023-03-11T03:06:26.601Z,6.83
2023-03-11T03:08:54.918Z,6.79
2023-03-11T03:11:22.590Z,6.78
2023-03-11T03:13:50.159Z,6.75
2023-03-11T03:16:17.948Z,6.73
2023-03-11T03:18:45.757Z,6.72
2023-03-11T03:21:13.333Z,6.69
2023-03-11T03:23:40.957Z,6.64
2023-03-11T03:26:12.280Z,6.61
2023-03-11T03:28:39.902Z,6.54
2023-03-11T03:31:09.299Z,6.47
2023-03-11T03:33:37.246Z,6.40
2023-03-11T03:36:10.518Z,6.35
2023-03-11T03:38:38.390Z,6.26
2023-03-11T03:41:06.377Z,6.17
2023-03-11T03:43:33.929Z,6.09
2023-03-11T03:46:04.251Z,5.99
2023-03-11T03:48:32.576Z,5.89
2023-03-11T03:51:06.299Z,5.82
2023-03-11T03:53:35.575Z,5.75
2023-03-11T03:56:10.910Z,5.68
2023-03-11T03:58:38.525Z,5.61
2023-03-11T04:01:07.009Z,5.54
2023-03-11T04:03:35.364Z,5.47
2023-03-11T04:06:07.307Z,5.39
2023-03-11T04:08:34.859Z,5.30
2023-03-11T04:11:03.145Z,5.21
2023-03-11T04:13:30.725Z,5.12
2023-03-11T04:15:58.479Z,5.03
2023-03-11T04:18:26.305Z,4.90
2023-03-11T04:20:53.946Z,4.74
2023-03-11T04:23:21.591Z,4.60
2023-03-11T04:25:49.164Z,4.48
2023-03-11T04:28:16.762Z,4.39
2023-03-11T04:30:44.369Z,4.29
2023-03-11T04:33:12.097Z,4.22
2023-03-11T04:35:39.710Z,4.15
2023-03-11T04:38:07.435Z,4.11
2023-03-11T04:40:37.183Z,4.06
2023-03-11T04:43:05.124Z,4.00
2023-03-11T04:45:32.796Z,3.95
2023-03-11T04:48:00.352Z,3.89
2023-03-11T04:50:27.908Z,3.83
2023-03-11T04:52:55.528Z,3.77
2023-03-11T04:55:23.303Z,3.73
2023-03-11T04:57:50.898Z,3.69
2023-03-11T05:00:18.963Z,3.65
2023-03-11T05:02:46.669Z,3.61
2023-03-11T05:05:14.275Z,3.57
2023-03-11T05:07:41.989Z,3.53
2023-03-11T05:10:10.180Z,3.49
2023-03-11T05:12:37.793Z,3.45
2023-03-11T05:15:05.922Z,3.40
2023-03-11T05:17:33.551Z,3.34
2023-03-11T05:20:01.109Z,3.29
2023-03-11T05:22:28.675Z,3.22
2023-03-11T05:24:56.225Z,3.18
2023-03-11T05:27:23.837Z,3.14
2023-03-11T05:29:51.628Z,3.10
2023-03-11T05:32:19.248Z,3.06
2023-03-11T05:34:47.011Z,3.02
2023-03-11T05:37:15.740Z,3.00
2023-03-11T05:39:43.293Z,2.96
2023-03-11T05:42:10.858Z,2.92
2023-03-11T05:44:38.507Z,2.89
2023-03-11T05:47:06.214Z,2.85
2023-03-11T05:49:33.927Z,2.81
2023-03-11T05:52:01.559Z,2.73
2023-03-11T05:54:30.048Z,2.60
2023-03-11T05:56:57.585Z,2.43
2023-03-11T05:59:25.158Z,2.23
2023-03-11T06:01:52.707Z,2.07
2023-03-11T06:04:20.596Z,1.92
2023-03-11T06:06:48.273Z,1.80
2023-03-11T06:09:16.187Z,1.72
2023-03-11T06:11:43.805Z,1.65
2023-03-11T06:14:13.310Z,1.59
2023-03-11T06:16:41.834Z,1.54
2023-03-11T06:19:09.637Z,1.49
2023-03-11T06:21:37.226Z,1.44
2023-03-11T06:24:05.184Z,1.36
2023-03-11T06:26:32.771Z,1.29
2023-03-11T06:29:00.316Z,1.23
2023-03-11T06:31:29.348Z,1.18
2023-03-11T06:33:57.093Z,1.10
2023-03-11T06:36:25.041Z,1.00
2023-03-11T06:38:54.218Z,0.92
2023-03-11T06:41:21.880Z,0.84
2023-03-11T06:43:49.866Z,0.77
2023-03-11T06:46:19.980Z,0.70
2023-03-11T06:48:48.274Z,0.65
2023-03-11T06:51:15.934Z,0.60
2023-03-11T06:53:44.067Z,0.56
2023-03-11T06:56:13.591Z,0.55
2023-03-11T06:58:42.341Z,0.56
2023-03-11T07:01:23.822Z,0.60
2023-03-11T07:03:51.982Z,0.65
2023-03-11T07:06:25.748Z,0.71
2023-03-11T07:08:54.382Z,0.82
2023-03-11T07:11:24.936Z,0.89
2023-03-11T07:13:53.992Z,0.97
2023-03-11T07:16:27.321Z,1.02
2023-03-11T07:18:57.753Z,1.03
2023-03-11T07:21:25.745Z,1.04
2023-03-11T07:23:59.285Z,1.04
2023-03-11T07:26:28.382Z,1.02
2023-03-11T07:28:57.394Z,1.00
2023-03-11T07:31:27.607Z,1.00
2023-03-11T07:33:58.032Z,1.01
2023-03-11T07:36:25.817Z,1.02
2023-03-11T07:38:59.067Z,1.03
2023-03-11T07:41:27.029Z,1.10
2023-03-11T07:43:56.471Z,1.14
2023-03-11T07:46:25.982Z,1.19
2023-03-11T07:48:53.939Z,1.24
2023-03-11T07:51:25.374Z,1.26
2023-03-11T07:53:55.555Z,1.27
2023-03-11T07:56:24.846Z,1.27
2023-03-11T07:58:53.415Z,1.24
2023-03-11T08:01:24.861Z,1.21
2023-03-11T08:03:53.864Z,1.19
2023-03-11T08:06:25.456Z,1.20
2023-03-11T08:08:53.665Z,1.19
2023-03-11T08:11:21.318Z,1.15
2023-03-11T08:13:49.986Z,1.10
2023-03-11T08:16:20.035Z,1.09
2023-03-11T08:18:49.084Z,1.16
2023-03-11T08:21:20.102Z,1.23
2023-03-11T08:23:48.145Z,1.25
2023-03-11T08:26:18.431Z,1.28
2023-03-11T08:28:46.600Z,1.36
2023-03-11T08:31:23.403Z,1.36
2023-03-11T08:33:53.681Z,1.34
2023-03-11T08:36:21.612Z,1.39
2023-03-11T08:38:49.235Z,1.30
2023-03-11T08:41:17.264Z,1.20
2023-03-11T08:43:45.622Z,1.17
2023-03-11T08:46:24.705Z,1.16
2023-03-11T08:48:53.354Z,1.04
2023-03-11T08:51:22.337Z,0.92
2023-03-11T08:53:50.708Z,0.85
2023-03-11T08:56:19.055Z,0.87
2023-03-11T08:58:47.334Z,0.97
2023-03-11T09:01:15.063Z,1.11
2023-03-11T09:03:42.887Z,1.16
2023-03-11T09:06:14.404Z,1.28
2023-03-11T09:08:43.785Z,1.40
2023-03-11T09:11:12.162Z,1.50
2023-03-11T09:13:40.455Z,1.55
2023-03-11T09:16:16.794Z,1.48
2023-03-11T09:18:44.625Z,1.30
2023-03-11T09:21:12.947Z,1.26
2023-03-11T09:23:43.605Z,1.29
2023-03-11T09:26:12.777Z,1.28
2023-03-11T09:28:41.553Z,1.22
2023-03-11T09:31:09.454Z,1.09
2023-03-11T09:33:42.569Z,0.99
2023-03-11T09:36:15.484Z,0.84
2023-03-11T09:38:43.789Z,0.71
2023-03-11T09:41:22.263Z,0.58
2023-03-11T09:44:31.471Z,0.49
2023-03-11T09:47:20.842Z,0.41
2023-03-11T09:50:09.287Z,0.40
2023-03-11T09:53:20.298Z,0.33
2023-03-11T09:55:56.255Z,0.28
2023-03-11T09:58:35.879Z,0.23
2023-03-11T10:01:14.267Z,0.22
2023-03-11T10:03:42.955Z,0.21
2023-03-11T10:06:37.980Z,0.21
2023-03-11T10:09:39.401Z,0.21
2023-03-11T10:12:33.162Z,0.20
2023-03-11T10:15:34.527Z,0.18
2023-03-11T10:18:17.154Z,0.17
2023-03-11T10:21:03.533Z,0.17
2023-03-11T10:23:46.591Z,0.21
2023-03-11T10:26:14.251Z,0.23
2023-03-11T10:28:47.145Z,0.23
2023-03-11T10:31:17.900Z,0.23
2023-03-11T10:33:58.904Z,0.24
2023-03-11T10:36:35.498Z,0.25
2023-03-11T10:39:05.129Z,0.24
2023-03-11T10:41:44.102Z,0.23
2023-03-11T10:44:28.660Z,0.23
2023-03-11T10:46:56.373Z,0.24
2023-03-11T10:49:23.973Z,0.24
2023-03-11T10:51:53.981Z,0.26
2023-03-11T10:54:37.740Z,0.29
2023-03-11T10:57:20.335Z,0.31
2023-03-11T10:59:50.979Z,0.30
2023-03-11T11:02:23.318Z,0.29
2023-03-11T11:05:02.985Z,0.27
2023-03-11T11:07:34.099Z,0.28
2023-03-11T11:10:25.236Z,0.29
2023-03-11T11:13:02.350Z,0.28
2023-03-11T11:15:36.642Z,0.26
2023-03-11T11:18:18.052Z,0.23
2023-03-11T11:21:01.596Z,0.21
2023-03-11T11:23:44.967Z,0.20
2023-03-11T11:26:22.835Z,0.19
2023-03-11T11:29:09.505Z,0.21
2023-03-11T11:31:39.465Z,0.24
2023-03-11T11:34:30.521Z,0.24
2023-03-11T11:37:00.883Z,0.28
2023-03-11T11:39:30.732Z,0.32
2023-03-11T11:42:00.623Z,0.36
2023-03-11T11:44:34.833Z,0.41
2023-03-11T11:47:13.519Z,0.39
2023-03-11T11:49:50.792Z,0.36
2023-03-11T11:52:24.088Z,0.30
2023-03-11T11:54:54.119Z,0.28
2023-03-11T11:57:23.604Z,0.36
2023-03-11T11:59:51.302Z,0.42
2023-03-11T12:02:34.371Z,0.41
2023-03-11T12:05:15.113Z,0.39
2023-03-11T12:08:09.235Z,0.39
2023-03-11T12:10:42.787Z,0.40
2023-03-11T12:13:31.960Z,0.40
2023-03-11T12:16:06.524Z,0.38
2023-03-11T12:18:57.201Z,0.42
2023-03-11T12:22:06.250Z,0.48
2023-03-11T12:25:07.417Z,0.52
2023-03-11T12:27:44.728Z,0.64
2023-03-11T12:30:21.246Z,0.75
2023-03-11T12:32:56.686Z,0.80
2023-03-11T12:35:30.872Z,0.78
2023-03-11T12:38:01.509Z,0.68
2023-03-11T12:40:44.477Z,0.56
2023-03-11T12:43:23.899Z,0.44
2023-03-11T12:45:53.608Z,0.36
2023-03-11T12:48:30.053Z,0.30
2023-03-11T12:50:58.959Z,0.31
2023-03-11T12:53:44.568Z,0.32
2023-03-11T12:56:56.530Z,0.32
2023-03-11T13:00:01.959Z,0.28
2023-03-11T13:03:00.284Z,0.20
2023-03-11T13:05:46.196Z,0.13
2023-03-11T13:08:17.564Z,0.07
2023-03-11T13:10:55.789Z,0.05
2023-03-11T13:13:42.424Z,0.02
2023-03-11T13:16:12.833Z,-0.05
2023-03-11T13:18:44.465Z,-0.09
2023-03-11T13:21:27.384Z,-0.11
2023-03-11T13:24:13.722Z,-0.13
2023-03-11T13:26:47.211Z,-0.16
2023-03-11T13:29:51.317Z,-0.19
2023-03-11T13:32:34.149Z,-0.20
2023-03-11T13:35:28.363Z,-0.18
2023-03-11T13:38:34.139Z,-0.17
2023-03-11T13:41:09.925Z,-0.19
2023-03-11T13:43:46.791Z,-0.19
2023-03-11T13:46:27.758Z,-0.20
2023-03-11T13:49:05.146Z,-0.21
2023-03-11T13:51:40.738Z,-0.23
2023-03-11T13:54:17.139Z,-0.26
2023-03-11T13:56:48.995Z,-0.27
2023-03-11T13:59:31.636Z,-0.28
2023-03-11T14:02:06.397Z,-0.31
2023-03-11T14:04:36.721Z,-0.32
2023-03-11T14:07:34.847Z,-0.33
2023-03-11T14:10:11.307Z,-0.32
2023-03-11T14:12:39.440Z,-0.29
2023-03-11T14:15:15.958Z,-0.29
2023-03-11T14:17:43.816Z,-0.31
2023-03-11T14:20:20.975Z,-0.33
2023-03-11T14:22:51.229Z,-0.37
2023-03-11T14:25:24.441Z,-0.38
2023-03-11T14:27:56.477Z,-0.39
2023-03-11T14:30:27.935Z,-0.38
2023-03-11T14:32:59.998Z,-0.38
2023-03-11T14:35:28.429Z,-0.36
2023-03-11T14:37:57.871Z,-0.34
2023-03-11T14:40:27.216Z,-0.37
2023-03-11T14:42:58.184Z,-0.39
2023-03-11T14:45:29.864Z,-0.42
2023-03-11T14:48:06.421Z,-0.41
2023-03-11T14:50:35.155Z,-0.44
2023-03-11T14:53:12.997Z,-0.46
2023-03-11T14:55:51.127Z,-0.50
2023-03-11T14:58:30.887Z,-0.54
2023-03-11T15:01:05.240Z,-0.58
2023-03-11T15:03:39.951Z,-0.62
2023-03-11T15:06:16.579Z,-0.64
2023-03-11T15:09:06.103Z,-0.63
2023-03-11T15:11:45.652Z,-0.60
2023-03-11T15:14:31.352Z,-0.55
2023-03-11T15:17:41.164Z,-0.47
2023-03-11T15:20:23.139Z,-0.41
2023-03-11T15:22:57.581Z,-0.37
2023-03-11T15:25:25.418Z,-0.33
2023-03-11T15:27:53.171Z,-0.30
2023-03-11T15:30:28.277Z,-0.27
2023-03-11T15:32:57.369Z,-0.25
2023-03-11T15:35:29.960Z,-0.25
2023-03-11T15:38:20.893Z,-0.24
2023-03-11T15:40:59.511Z,-0.26
2023-03-11T15:43:33.175Z,-0.27
2023-03-11T15:46:02.910Z,-0.32
2023-03-11T15:48:30.584Z,-0.34
2023-03-11T15:51:00.388Z,-0.38
2023-03-11T15:53:29.817Z,-0.44
2023-03-11T15:56:07.453Z,-0.48
2023-03-11T15:58:37.514Z,-0.51
2023-03-11T16:01:05.261Z,-0.55
2023-03-11T16:03:32.937Z,-0.58
2023-03-11T16:06:00.568Z,-0.63
2023-03-11T16:08:28.129Z,-0.67
2023-03-11T16:10:55.864Z,-0.72
2023-03-11T16:13:23.515Z,-0.74
2023-03-11T16:15:51.190Z,-0.75
2023-03-11T16:18:18.767Z,-0.76
2023-03-11T16:20:49.765Z,-0.77
2023-03-11T16:23:23.840Z,-0.75
2023-03-11T16:25:56.941Z,-0.74
2023-03-11T16:28:24.751Z,-0.70
2023-03-11T16:30:52.402Z,-0.67
2023-03-11T16:33:20.091Z,-0.67
2023-03-11T16:35:47.890Z,-0.66
2023-03-11T16:38:15.492Z,-0.67
2023-03-11T16:40:43.223Z,-0.70
2023-03-11T16:43:12.784Z,-0.72
2023-03-11T16:45:40.396Z,-0.74
2023-03-11T16:48:07.999Z,-0.75
2023-03-11T16:50:37.457Z,-0.75
2023-03-11T16:53:05.458Z,-0.77
2023-03-11T16:55:33.186Z,-0.78
2023-03-11T16:58:00.964Z,-0.79
2023-03-11T17:00:28.538Z,-0.79
2023-03-11T17:02:56.204Z,-0.77
2023-03-11T17:05:23.928Z,-0.79
2023-03-11T17:07:56.451Z,-0.78
2023-03-11T17:10:24.175Z,-0.79
2023-03-11T17:12:52.136Z,-0.81
2023-03-11T17:15:20.235Z,-0.83
2023-03-11T17:17:47.867Z,-0.82
2023-03-11T17:20:15.467Z,-0.83
2023-03-11T17:22:43.165Z,-0.86
2023-03-11T17:25:10.834Z,-0.89
2023-03-11T17:27:38.429Z,-0.92
2023-03-11T17:30:07.531Z,-0.91
2023-03-11T17:32:35.189Z,-0.89
2023-03-11T17:35:03.170Z,-0.88
2023-03-11T17:37:31.181Z,-0.89
2023-03-11T17:39:58.864Z,-0.88
2023-03-11T17:42:26.488Z,-0.87
2023-03-11T17:44:57.689Z,-0.88
2023-03-11T17:47:25.364Z,-0.90
2023-03-11T17:49:53.313Z,-0.90
2023-03-11T17:52:21.018Z,-0.91
2023-03-11T17:54:48.859Z,-0.92
2023-03-11T17:57:16.471Z,-0.93
2023-03-11T17:59:45.181Z,-0.93
2023-03-11T18:02:13.586Z,-0.95
2023-03-11T18:04:41.403Z,-0.95
2023-03-11T18:07:09.062Z,-0.95
2023-03-11T18:09:36.803Z,-0.97
2023-03-11T18:12:04.930Z,-0.97
2023-03-11T18:14:33.024Z,-0.98
2023-03-11T18:17:00.643Z,-0.98
2023-03-11T18:19:28.240Z,-1.00
2023-03-11T18:21:55.909Z,-1.02
2023-03-11T18:24:23.508Z,-1.01
2023-03-11T18:26:51.091Z,-1.01
2023-03-11T18:29:19.110Z,-1.03
2023-03-11T18:31:47.109Z,-1.04
2023-03-11T18:34:14.951Z,-1.05
2023-03-11T18:36:42.680Z,-1.06
2023-03-11T18:39:11.108Z,-1.07
2023-03-11T18:41:38.732Z,-1.08
2023-03-11T18:44:06.909Z,-1.10
2023-03-11T18:46:34.682Z,-1.12
2023-03-11T18:49:03.591Z,-1.10
2023-03-11T18:51:32.200Z,-1.10
2023-03-11T18:54:00.855Z,-1.11
2023-03-11T18:56:29.259Z,-1.12
2023-03-11T18:58:58.766Z,-1.13
2023-03-11T19:01:26.917Z,-1.14
2023-03-11T19:03:57.743Z,-1.13
2023-03-11T19:06:27.879Z,-1.11
2023-03-11T19:08:55.729Z,-1.10
2023-03-11T19:11:24.979Z,-1.10
2023-03-11T19:13:53.178Z,-1.10
2023-03-11T19:16:23.954Z,-1.09
2023-03-11T19:18:53.006Z,-1.10
2023-03-11T19:21:21.444Z,-1.07
2023-03-11T19:23:49.129Z,-1.06
2023-03-11T19:26:16.709Z,-1.04
2023-03-11T19:28:44.333Z,-1.03
2023-03-11T19:31:12.228Z,-1.03
2023-03-11T19:33:39.894Z,-1.04
2023-03-11T19:36:08.354Z,-1.05
2023-03-11T19:38:36.006Z,-1.09
2023-03-11T19:41:10.483Z,-1.12
2023-03-11T19:43:38.199Z,-1.16
2023-03-11T19:46:07.340Z,-1.18
2023-03-11T19:48:35.322Z,-1.21
2023-03-11T19:51:03.416Z,-1.23
2023-03-11T19:53:31.266Z,-1.25
2023-03-11T19:55:59.290Z,-1.27
2023-03-11T19:58:30.558Z,-1.32
2023-03-11T20:00:59.407Z,-1.31
2023-03-11T20:03:27.081Z,-1.34
2023-03-11T20:05:55.855Z,-1.39
2023-03-11T20:08:25.667Z,-1.41
2023-03-11T20:10:53.901Z,-1.38
2023-03-11T20:13:22.394Z,-1.36
2023-03-11T20:15:50.423Z,-1.36
2023-03-11T20:18:18.420Z,-1.35
2023-03-11T20:20:46.526Z,-1.35
2023-03-11T20:23:14.779Z,-1.33
2023-03-11T20:25:42.438Z,-1.28
2023-03-11T20:28:10.566Z,-1.24
2023-03-11T20:30:39.261Z,-1.21
2023-03-11T20:33:08.000Z,-1.20
2023-03-11T20:35:35.726Z,-1.19
2023-03-11T20:38:03.399Z,-1.19
2023-03-11T20:40:31.014Z,-1.18
2023-03-11T20:42:58.614Z,-1.16
2023-03-11T20:45:26.413Z,-1.15
2023-03-11T20:47:54.136Z,-1.15
2023-03-11T20:50:22.840Z,-1.14
2023-03-11T20:52:51.004Z,-1.13
2023-03-11T20:55:18.791Z,-1.12
2023-03-11T20:57:46.701Z,-1.12
2023-03-11T21:00:14.855Z,-1.12
2023-03-11T21:02:43.380Z,-1.12
2023-03-11T21:05:12.598Z,-1.12
2023-03-11T21:07:43.801Z,-1.13
2023-03-11T21:10:12.437Z,-1.12
2023-03-11T21:12:40.250Z,-1.11
2023-03-11T21:15:08.814Z,-1.11
2023-03-11T21:17:37.589Z,-1.07
2023-03-11T21:20:06.126Z,-1.04
2023-03-11T21:22:33.957Z,-1.03
2023-03-11T21:25:01.678Z,-1.03
2023-03-11T21:27:29.368Z,-1.02
2023-03-11T21:29:58.935Z,-1.02
2023-03-11T21:32:28.258Z,-1.02
2023-03-11T21:34:58.385Z,-1.01
2023-03-11T21:37:27.231Z,-1.01
2023-03-11T21:39:55.123Z,-1.01
2023-03-11T21:42:23.592Z,-1.01
2023-03-11T21:44:51.544Z,-1.03
2023-03-11T21:47:19.621Z,-1.04
2023-03-11T21:49:47.432Z,-1.03
2023-03-11T21:52:15.070Z,-1.03
2023-03-11T21:54:42.804Z,-1.04
2023-03-11T21:57:10.504Z,-1.04
2023-03-11T21:59:38.258Z,-1.03
2023-03-11T22:02:06.405Z,-1.02
2023-03-11T22:04:34.103Z,-1.01
2023-03-11T22:07:01.915Z,-1.00
2023-03-11T22:09:29.604Z,-0.99
2023-03-11T22:11:57.259Z,-0.98
2023-03-11T22:14:24.981Z,-0.99
2023-03-11T22:16:53.047Z,-0.99
2023-03-11T22:19:20.859Z,-0.99
2023-03-11T22:21:48.664Z,-0.99
2023-03-11T22:24:16.280Z,-0.98
2023-03-11T22:26:43.865Z,-0.98
2023-03-11T22:29:13.546Z,-0.98
2023-03-11T22:31:41.461Z,-1.01
2023-03-11T22:34:09.143Z,-1.07
2023-03-11T22:36:36.722Z,-1.14
2023-03-11T22:39:04.798Z,-1.20
2023-03-11T22:41:33.184Z,-1.28
2023-03-11T22:44:00.851Z,-1.35
2023-03-11T22:46:28.871Z,-1.43
2023-03-11T22:48:56.540Z,-1.50
2023-03-11T22:51:24.164Z,-1.55
2023-03-11T22:53:51.761Z,-1.63
2023-03-11T22:56:19.441Z,-1.72
2023-03-11T22:58:47.035Z,-1.76
2023-03-11T23:01:14.576Z,-1.79
2023-03-11T23:03:43.518Z,-1.85
2023-03-11T23:06:15.230Z,-1.90
2023-03-11T23:08:42.939Z,-1.95
2023-03-11T23:11:14.506Z,-1.98
2023-03-11T23:13:43.485Z,-1.99
2023-03-11T23:16:17.530Z,-2.00
2023-03-11T23:18:46.249Z,-2.00
2023-03-11T23:21:19.570Z,-2.03
2023-03-11T23:23:47.545Z,-2.07
2023-03-11T23:26:15.701Z,-2.08
2023-03-11T23:28:43.772Z,-2.09
2023-03-11T23:31:14.133Z,-2.10
2023-03-11T23:33:42.636Z,-2.07
2023-03-11T23:36:13.925Z,-2.09
2023-03-11T23:38:42.042Z,-2.11
2023-03-11T23:41:12.802Z,-2.11
2023-03-11T23:43:40.863Z,-2.08
2023-03-11T23:46:09.694Z,-2.07
2023-03-11T23:48:38.279Z,-2.09
2023-03-11T23:51:05.923Z,-2.10
2023-03-11T23:53:33.891Z,-2.11
2023-03-11T23:56:01.733Z,-2.11
2023-03-11T23:58:29.348Z,-2.09
